createdAt,value
2018-09-20T00:00:59.905Z,100.00
2018-09-20T00:03:28.215Z,100.00
2018-09-20T00:05:56.513Z,100.00
2018-09-20T00:08:25.371Z,100.00
2018-09-20T00:10:53.696Z,100.00
2018-09-20T00:13:21.990Z,100.00
2018-09-20T00:15:50.282Z,100.00
2018-09-20T00:18:18.598Z,100.00
2018-09-20T00:20:46.890Z,100.00
2018-09-20T00:23:15.186Z,100.00
2018-09-20T00:25:43.471Z,100.00
2018-09-20T00:28:11.783Z,100.00
2018-09-20T00:30:40.085Z,100.00
2018-09-20T00:33:08.391Z,100.00
2018-09-20T00:35:36.688Z,100.00
2018-09-20T00:38:05.002Z,100.00
2018-09-20T00:40:33.301Z,100.00
2018-09-20T00:43:01.586Z,100.00
2018-09-20T00:45:29.886Z,100.00
2018-09-20T00:47:58.178Z,100.00
2018-09-20T00:50:26.502Z,100.00
2018-09-20T00:52:54.803Z,100.00
2018-09-20T00:55:23.119Z,100.00
2018-09-20T00:57:51.430Z,100.00
2018-09-20T01:00:19.731Z,100.00
2018-09-20T01:02:48.026Z,100.00
2018-09-20T01:05:16.322Z,100.00
2018-09-20T01:07:44.641Z,100.00
2018-09-20T01:10:12.938Z,100.00
2018-09-20T01:12:41.246Z,100.00
2018-09-20T01:15:09.538Z,100.00
2018-09-20T01:17:37.832Z,100.00
2018-09-20T01:20:06.159Z,100.00
2018-09-20T01:22:34.442Z,100.00
2018-09-20T01:25:02.746Z,100.00
2018-09-20T01:27:31.042Z,100.00
2018-09-20T01:29:59.350Z,100.00
2018-09-20T01:32:27.646Z,100.00
2018-09-20T01:34:55.938Z,100.00
2018-09-20T01:37:24.247Z,100.00
2018-09-20T01:46:51.002Z,100.00
2018-09-20T01:49:19.308Z,100.00
2018-09-20T01:51:47.595Z,100.00
2018-09-20T01:54:15.894Z,100.00
2018-09-20T01:56:44.190Z,100.00
2018-09-20T01:59:12.498Z,100.00
2018-09-20T02:01:40.790Z,100.00
2018-09-20T02:04:09.094Z,100.00
2018-09-20T02:06:37.386Z,100.00
2018-09-20T02:09:05.674Z,100.00
2018-09-20T02:11:33.978Z,100.00
2018-09-20T02:14:02.274Z,100.00
2018-09-20T02:16:30.582Z,100.00
2018-09-20T02:18:58.875Z,100.00
2018-09-20T02:21:27.174Z,100.00
2018-09-20T02:23:55.462Z,100.00
2018-09-20T02:26:23.762Z,100.00
2018-09-20T02:28:52.057Z,100.00
2018-09-20T02:31:20.350Z,100.00
2018-09-20T02:33:48.656Z,100.00
2018-09-20T02:36:16.947Z,100.00
2018-09-20T02:38:45.247Z,100.00
2018-09-20T02:41:13.540Z,100.00
2018-09-20T02:43:41.834Z,100.00
2018-09-20T02:46:10.130Z,100.00
2018-09-20T02:48:38.422Z,100.00
2018-09-20T02:51:06.726Z,100.00
2018-09-20T02:53:35.029Z,100.00
2018-09-20T02:56:03.339Z,100.00
2018-09-20T02:58:31.623Z,100.00
2018-09-20T03:00:59.906Z,100.00
2018-09-20T03:03:28.215Z,100.00
2018-09-20T03:05:56.502Z,100.00
2018-09-20T03:08:24.805Z,100.00
2018-09-20T03:10:53.098Z,100.00
2018-09-20T03:13:21.402Z,100.00
2018-09-20T03:15:49.698Z,100.00
2018-09-20T03:18:18.003Z,100.00
2018-09-20T03:20:46.302Z,100.00
2018-09-20T03:23:14.591Z,100.00
2018-09-20T03:25:42.894Z,100.00
2018-09-20T03:28:11.207Z,100.00
2018-09-20T03:30:39.591Z,100.00
2018-09-20T03:33:07.803Z,100.00
2018-09-20T03:35:36.091Z,100.00
2018-09-20T03:38:04.386Z,100.00
2018-09-20T03:40:32.678Z,100.00
2018-09-20T03:43:01.008Z,100.00
2018-09-20T03:45:29.318Z,100.00
2018-09-20T03:47:57.590Z,100.00
2018-09-20T03:50:25.892Z,100.00
2018-09-20T03:52:54.193Z,100.00
2018-09-20T03:55:22.491Z,100.00
2018-09-20T03:57:50.821Z,100.00
2018-09-20T04:00:19.094Z,100.00
2018-09-20T04:02:47.390Z,100.00
2018-09-20T04:05:15.691Z,100.00
2018-09-20T04:07:43.984Z,100.00
2018-09-20T04:10:12.271Z,100.00
2018-09-20T04:12:40.585Z,100.00
2018-09-20T04:15:08.863Z,100.00
2018-09-20T04:17:37.154Z,100.00
2018-09-20T04:20:05.472Z,100.00
2018-09-20T04:22:33.763Z,100.00
2018-09-20T04:25:02.058Z,100.00
2018-09-20T04:27:30.363Z,100.00
2018-09-20T04:29:58.810Z,100.00
2018-09-20T04:32:27.095Z,100.00
2018-09-20T04:34:55.411Z,100.00
2018-09-20T04:37:23.706Z,100.00
2018-09-20T04:39:51.994Z,100.00
2018-09-20T04:42:20.301Z,100.00
2018-09-20T04:44:49.894Z,100.00
2018-09-20T04:47:18.378Z,100.00
2018-09-20T04:49:46.675Z,100.00
2018-09-20T04:52:14.966Z,100.00
2018-09-20T04:54:43.263Z,100.00
2018-09-20T04:57:11.570Z,100.00
2018-09-20T04:59:39.863Z,100.00
2018-09-20T05:02:08.154Z,100.00
2018-09-20T05:04:36.463Z,100.00
2018-09-20T05:07:04.751Z,100.00
2018-09-20T05:09:33.073Z,100.00
2018-09-20T05:12:01.356Z,100.00
2018-09-20T05:14:29.646Z,100.00
2018-09-20T05:16:57.934Z,100.00
2018-09-20T05:19:26.252Z,100.00
2018-09-20T05:21:54.639Z,100.00
2018-09-20T05:24:22.886Z,100.00
2018-09-20T05:26:51.199Z,100.00
2018-09-20T05:29:19.491Z,100.00
2018-09-20T05:31:47.782Z,100.00
2018-09-20T05:34:16.094Z,100.00
2018-09-20T05:36:44.378Z,100.00
2018-09-20T05:39:12.689Z,100.00
2018-09-20T05:41:41.014Z,100.00
2018-09-20T05:44:09.315Z,100.00
2018-09-20T05:46:37.603Z,100.00
2018-09-20T05:49:05.911Z,100.00
2018-09-20T05:51:34.207Z,100.00
2018-09-20T05:54:02.494Z,100.00
2018-09-20T05:56:30.802Z,100.00
2018-09-20T05:58:59.087Z,100.00
2018-09-20T06:01:27.384Z,100.00
2018-09-20T06:03:55.696Z,100.00
2018-09-20T06:06:23.999Z,100.00
2018-09-20T06:08:52.292Z,100.00
2018-09-20T06:11:20.598Z,100.00
2018-09-20T06:13:48.894Z,100.00
2018-09-20T06:16:17.191Z,100.00
2018-09-20T06:18:45.498Z,100.00
2018-09-20T06:21:13.786Z,100.00
2018-09-20T06:23:42.078Z,100.00
2018-09-20T06:26:10.387Z,100.00
2018-09-20T06:28:38.679Z,100.00
2018-09-20T06:31:06.974Z,100.00
2018-09-20T06:33:35.286Z,100.00
2018-09-20T06:36:03.579Z,100.00
2018-09-20T06:38:31.889Z,100.00
2018-09-20T06:41:00.237Z,100.00
2018-09-20T06:43:28.495Z,100.00
2018-09-20T06:45:56.794Z,100.00
2018-09-20T06:48:25.099Z,100.00
2018-09-20T06:50:53.398Z,100.00
2018-09-20T06:53:21.711Z,100.00
2018-09-20T06:55:50.027Z,100.00
2018-09-20T06:58:18.320Z,100.00
2018-09-20T07:00:46.607Z,100.00
2018-09-20T07:03:14.937Z,100.00
2018-09-20T07:05:43.209Z,99.70
2018-09-20T07:08:11.507Z,100.00
2018-09-20T07:10:39.829Z,100.00
2018-09-20T07:13:08.114Z,100.00
2018-09-20T07:15:36.411Z,99.19
2018-09-20T07:18:04.719Z,98.21
2018-09-20T07:20:33.011Z,98.31
2018-09-20T07:23:01.307Z,97.82
2018-09-20T07:25:29.634Z,97.00
2018-09-20T07:27:57.898Z,96.44
2018-09-20T07:30:26.183Z,99.30
2018-09-20T07:32:54.505Z,95.75
2018-09-20T07:35:22.778Z,95.26
2018-09-20T07:37:51.075Z,96.26
2018-09-20T07:40:19.409Z,95.91
2018-09-20T07:42:47.695Z,95.60
2018-09-20T07:45:15.978Z,95.03
2018-09-20T07:47:44.286Z,95.02
2018-09-20T07:50:12.586Z,93.95
2018-09-20T07:52:40.878Z,93.96
2018-09-20T07:55:09.287Z,94.23
2018-09-20T07:57:37.574Z,93.19
2018-09-20T08:00:05.856Z,92.20
2018-09-20T08:02:34.167Z,90.94
2018-09-20T08:05:02.460Z,91.18
2018-09-20T08:07:30.766Z,89.81
2018-09-20T08:09:59.066Z,90.99
2018-09-20T08:12:27.422Z,89.92
2018-09-20T08:14:55.711Z,92.30
2018-09-20T08:17:24.027Z,90.50
2018-09-20T08:19:52.430Z,89.16
2018-09-20T08:22:20.734Z,88.82
2018-09-20T08:24:49.054Z,88.28
2018-09-20T08:29:44.692Z,86.31
2018-09-20T08:32:12.996Z,85.86
2018-09-20T08:34:41.283Z,84.75
2018-09-20T08:37:09.592Z,87.39
2018-09-20T08:39:37.879Z,87.41
2018-09-20T08:42:06.298Z,84.12
2018-09-20T08:44:34.528Z,85.99
2018-09-20T08:47:02.927Z,81.45
2018-09-20T08:49:32.028Z,83.21
2018-09-20T08:52:00.963Z,82.66
2018-09-20T08:54:29.255Z,81.00
2018-09-20T08:56:57.609Z,79.97
2018-09-20T08:59:25.828Z,78.64
2018-09-20T09:01:54.144Z,77.41
2018-09-20T09:04:22.446Z,78.30
2018-09-20T09:06:50.710Z,79.56
2018-09-20T09:09:19.015Z,79.02
2018-09-20T09:11:47.340Z,78.08
2018-09-20T09:14:15.618Z,74.38
2018-09-20T09:16:43.916Z,76.64
2018-09-20T09:19:12.194Z,74.30
2018-09-20T09:21:40.479Z,74.48
2018-09-20T09:24:08.771Z,72.77
2018-09-20T09:26:37.067Z,72.67
2018-09-20T09:29:05.350Z,73.26
2018-09-20T09:31:33.675Z,72.87
2018-09-20T09:34:01.964Z,71.94
2018-09-20T09:36:30.251Z,70.06
2018-09-20T09:38:58.545Z,70.78
2018-09-20T09:41:26.821Z,69.83
2018-09-20T09:43:55.111Z,68.08
2018-09-20T09:46:23.414Z,67.40
2018-09-20T09:48:51.711Z,68.04
2018-09-20T09:51:19.990Z,66.64
2018-09-20T09:54:04.358Z,67.87
2018-09-20T09:56:32.657Z,68.97
2018-09-20T09:59:00.934Z,69.43
2018-09-20T10:01:29.236Z,64.48
2018-09-20T10:03:57.516Z,67.41
2018-09-20T10:06:25.824Z,65.40
2018-09-20T10:08:54.107Z,66.30
2018-09-20T10:11:22.403Z,65.88
2018-09-20T10:13:50.767Z,64.81
2018-09-20T10:16:18.995Z,64.49
2018-09-20T10:18:47.344Z,63.31
2018-09-20T10:21:15.645Z,63.70
2018-09-20T10:23:43.928Z,63.94
2018-09-20T10:26:12.231Z,63.57
2018-09-20T10:28:40.535Z,63.16
2018-09-20T10:31:08.823Z,62.13
2018-09-20T10:33:37.116Z,61.89
2018-09-20T10:36:05.398Z,63.53
2018-09-20T10:38:33.686Z,62.28
2018-09-20T10:41:01.962Z,61.06
2018-09-20T10:43:30.261Z,61.10
2018-09-20T10:45:58.615Z,62.23
2018-09-20T10:48:26.859Z,62.64
2018-09-20T10:50:55.176Z,62.76
2018-09-20T10:53:23.466Z,61.52
2018-09-20T10:55:51.750Z,61.87
2018-09-20T10:58:20.047Z,61.46
2018-09-20T11:00:48.327Z,59.53
2018-09-20T11:03:16.679Z,60.25
2018-09-20T11:05:44.915Z,58.89
2018-09-20T11:08:13.194Z,59.87
2018-09-20T11:10:41.484Z,59.87
2018-09-20T11:13:09.772Z,60.93
2018-09-20T11:15:38.087Z,60.45
2018-09-20T11:18:06.362Z,60.35
2018-09-20T11:20:34.670Z,59.71
2018-09-20T11:23:02.959Z,60.19
2018-09-20T11:25:31.242Z,59.17
2018-09-20T11:27:59.534Z,60.94
2018-09-20T11:30:27.815Z,61.18
2018-09-20T11:32:56.100Z,61.22
2018-09-20T11:35:24.399Z,61.63
2018-09-20T11:37:52.682Z,62.09
2018-09-20T11:40:20.970Z,58.97
2018-09-20T11:42:49.268Z,59.69
2018-09-20T11:45:17.644Z,59.26
2018-09-20T11:47:45.909Z,59.55
2018-09-20T11:50:14.210Z,58.39
2018-09-20T11:52:42.496Z,59.13
2018-09-20T11:55:10.804Z,58.81
2018-09-20T11:57:39.081Z,59.82
2018-09-20T12:00:07.354Z,58.45
2018-09-20T12:02:35.647Z,58.18
2018-09-20T12:05:03.938Z,58.01
2018-09-20T12:07:32.221Z,57.09
2018-09-20T12:10:00.534Z,58.83
2018-09-20T12:12:28.827Z,60.42
2018-09-20T12:14:57.143Z,61.19
2018-09-20T12:17:25.427Z,58.24
2018-09-20T12:19:53.727Z,58.98
2018-09-20T12:22:22.017Z,59.52
2018-09-20T12:24:50.298Z,58.02
2018-09-20T12:27:23.453Z,57.33
2018-09-20T12:30:02.261Z,54.96
2018-09-20T12:32:30.564Z,53.48
2018-09-20T12:34:58.850Z,54.42
2018-09-20T12:37:27.180Z,53.22
2018-09-20T12:39:55.450Z,54.49
2018-09-20T12:42:23.735Z,53.93
2018-09-20T12:44:52.018Z,54.13
2018-09-20T12:47:20.336Z,54.79
2018-09-20T12:49:48.603Z,53.71
2018-09-20T12:52:16.875Z,53.71
2018-09-20T12:54:45.253Z,54.08
2018-09-20T12:57:13.463Z,54.30
2018-09-20T12:59:41.773Z,53.85
2018-09-20T13:02:10.142Z,53.46
2018-09-20T13:04:38.375Z,54.07
2018-09-20T13:07:06.665Z,54.61
2018-09-20T13:09:34.964Z,54.37
2018-09-20T13:15:34.234Z,54.19
2018-09-20T13:18:02.519Z,55.37
2018-09-20T13:20:30.870Z,53.71
2018-09-20T13:22:59.107Z,53.71
2018-09-20T13:25:27.436Z,52.27
2018-09-20T13:27:55.674Z,52.44
2018-09-20T13:30:23.972Z,52.29
2018-09-20T13:32:52.255Z,54.01
2018-09-20T13:35:20.538Z,52.39
2018-09-20T13:37:48.831Z,51.24
2018-09-20T13:40:17.116Z,51.35
2018-09-20T13:42:45.412Z,51.65
2018-09-20T13:45:13.722Z,52.08
2018-09-20T13:47:42.045Z,51.89
2018-09-20T13:50:10.335Z,52.02
2018-09-20T13:52:38.638Z,52.67
2018-09-20T13:55:06.921Z,49.93
2018-09-20T13:57:35.197Z,51.69
2018-09-20T14:00:03.501Z,50.65
2018-09-20T14:02:31.792Z,50.37
2018-09-20T14:05:00.075Z,48.85
2018-09-20T14:07:28.371Z,48.84
2018-09-20T14:09:56.658Z,48.64
2018-09-20T14:12:24.934Z,48.16
2018-09-20T14:14:53.232Z,49.90
2018-09-20T14:17:21.519Z,46.94
2018-09-20T14:19:49.800Z,48.50
2018-09-20T14:22:18.100Z,50.38
2018-09-20T14:24:46.388Z,49.06
2018-09-20T14:27:19.034Z,50.24
2018-09-20T14:29:50.687Z,46.47
2018-09-20T14:32:26.071Z,46.27
2018-09-20T14:34:55.715Z,45.91
2018-09-20T14:37:24.053Z,46.36
2018-09-20T14:39:52.338Z,46.43
2018-09-20T14:42:20.629Z,47.20
2018-09-20T14:44:48.919Z,45.38
2018-09-20T14:47:17.203Z,45.18
2018-09-20T14:49:45.494Z,44.23
2018-09-20T14:52:13.785Z,44.32
2018-09-20T14:54:42.067Z,43.48
2018-09-20T14:57:10.361Z,44.48
2018-09-20T14:59:38.706Z,43.67
2018-09-20T15:02:06.958Z,44.34
2018-09-20T15:04:35.252Z,43.29
2018-09-20T15:07:03.548Z,44.82
2018-09-20T15:09:31.829Z,44.69
2018-09-20T15:12:00.150Z,43.48
2018-09-20T15:14:28.407Z,45.39
2018-09-20T15:16:56.687Z,43.75
2018-09-20T15:19:25.019Z,45.44
2018-09-20T15:21:53.271Z,45.31
2018-09-20T15:24:21.623Z,44.85
2018-09-20T15:26:49.896Z,46.17
2018-09-20T15:29:18.188Z,46.64
2018-09-20T15:31:46.564Z,44.24
2018-09-20T15:34:14.840Z,43.33
2018-09-20T15:36:43.186Z,43.95
2018-09-20T15:39:11.427Z,45.16
2018-09-20T15:41:39.721Z,44.86
2018-09-20T15:44:08.003Z,45.33
2018-09-20T15:46:36.282Z,46.51
2018-09-20T15:49:04.575Z,45.90
2018-09-20T15:51:32.866Z,46.32
2018-09-20T15:54:01.168Z,47.37
2018-09-20T15:56:29.454Z,47.12
2018-09-20T15:58:57.734Z,46.46
2018-09-20T16:01:26.046Z,46.85
2018-09-20T16:03:54.343Z,46.96
2018-09-20T16:06:22.623Z,47.44
2018-09-20T16:08:51.007Z,48.44
2018-09-20T16:11:19.270Z,49.12
2018-09-20T16:13:47.880Z,50.07
2018-09-20T16:16:16.154Z,51.23
2018-09-20T16:18:44.460Z,50.21
2018-09-20T16:21:12.743Z,49.60
2018-09-20T16:23:41.131Z,51.08
2018-09-20T16:26:09.325Z,51.39
2018-09-20T16:28:39.567Z,49.94
2018-09-20T16:31:15.118Z,51.34
2018-09-20T16:33:48.883Z,51.15
2018-09-20T16:36:19.075Z,49.46
2018-09-20T16:38:48.331Z,49.64
2018-09-20T16:41:18.319Z,47.79
2018-09-20T16:43:46.694Z,48.29
2018-09-20T16:46:14.967Z,46.92
2018-09-20T16:48:43.276Z,49.20
2018-09-20T16:51:11.564Z,49.20
2018-09-20T16:53:39.851Z,49.87
2018-09-20T16:56:08.148Z,47.75
2018-09-20T16:58:36.431Z,49.32
2018-09-20T17:01:04.859Z,48.32
2018-09-20T17:03:33.155Z,48.05
2018-09-20T17:06:01.434Z,47.95
2018-09-20T17:08:29.725Z,48.15
2018-09-20T17:10:58.016Z,47.50
2018-09-20T17:13:26.307Z,47.72
2018-09-20T17:15:54.586Z,48.23
2018-09-20T17:18:22.921Z,48.32
2018-09-20T17:20:51.175Z,49.22
2018-09-20T17:23:19.466Z,48.52
2018-09-20T17:25:47.896Z,49.67
2018-09-20T17:28:16.162Z,49.32
2018-09-20T17:30:44.450Z,50.20
2018-09-20T17:33:12.761Z,51.30
2018-09-20T17:35:41.189Z,51.93
2018-09-20T17:38:09.656Z,50.45
2018-09-20T17:40:38.124Z,51.47
2018-09-20T17:43:06.594Z,51.96
2018-09-20T17:45:34.921Z,51.82
2018-09-20T17:48:03.199Z,52.19
2018-09-20T17:50:31.479Z,54.12
2018-09-20T17:52:59.794Z,56.34
2018-09-20T17:55:28.150Z,57.53
2018-09-20T17:57:56.570Z,57.87
2018-09-20T18:00:24.855Z,58.16
2018-09-20T18:02:53.176Z,58.53
2018-09-20T18:05:21.455Z,59.00
2018-09-20T18:07:49.747Z,60.05
2018-09-20T18:10:18.043Z,60.43
2018-09-20T18:12:46.326Z,61.30
2018-09-20T18:15:14.627Z,61.32
2018-09-20T18:17:42.976Z,61.85
2018-09-20T18:20:11.208Z,62.35
2018-09-20T18:22:39.494Z,62.48
2018-09-20T18:25:07.788Z,63.13
2018-09-20T18:27:36.068Z,63.88
2018-09-20T18:30:04.354Z,64.03
2018-09-20T18:32:32.652Z,64.94
2018-09-20T18:35:00.953Z,64.22
2018-09-20T18:37:29.227Z,65.81
2018-09-20T18:39:57.534Z,66.69
2018-09-20T18:42:25.854Z,66.39
2018-09-20T18:44:54.104Z,65.16
2018-09-20T18:47:22.403Z,64.02
2018-09-20T18:49:50.701Z,65.64
2018-09-20T18:52:18.970Z,66.19
2018-09-20T18:54:47.277Z,65.47
2018-09-20T18:57:15.574Z,65.66
2018-09-20T18:59:43.862Z,66.38
2018-09-20T19:02:12.166Z,66.89
2018-09-20T19:04:40.478Z,65.54
2018-09-20T19:07:08.778Z,67.12
2018-09-20T19:09:37.315Z,67.60
2018-09-20T19:12:05.632Z,67.47
2018-09-20T19:14:33.920Z,68.15
2018-09-20T19:17:02.214Z,69.64
2018-09-20T19:19:30.511Z,69.39
2018-09-20T19:21:58.798Z,69.26
2018-09-20T19:24:27.111Z,70.07
2018-09-20T19:26:55.390Z,72.51
2018-09-20T19:29:23.674Z,73.32
2018-09-20T19:31:52.043Z,71.06
2018-09-20T19:34:20.266Z,71.84
2018-09-20T19:36:48.552Z,72.76
2018-09-20T19:39:16.850Z,72.61
2018-09-20T19:41:45.139Z,74.11
2018-09-20T19:46:40.898Z,75.51
2018-09-20T19:49:09.183Z,74.60
2018-09-20T19:51:37.568Z,77.48
2018-09-20T19:54:13.428Z,76.11
2018-09-20T19:56:42.059Z,78.32
2018-09-20T19:59:10.339Z,77.97
2018-09-20T20:01:38.662Z,75.51
2018-09-20T20:04:08.518Z,76.12
2018-09-20T20:06:36.841Z,78.11
2018-09-20T20:09:05.358Z,77.11
2018-09-20T20:11:33.663Z,77.80
2018-09-20T20:14:01.934Z,80.15
2018-09-20T20:16:30.261Z,78.77
2018-09-20T20:18:58.551Z,76.97
2018-09-20T20:21:26.850Z,78.28
2018-09-20T20:23:55.314Z,78.62
2018-09-20T20:26:23.674Z,77.55
2018-09-20T20:28:51.968Z,77.98
2018-09-20T20:31:20.282Z,77.91
2018-09-20T20:33:48.569Z,76.83
2018-09-20T20:36:16.863Z,76.53
2018-09-20T20:38:45.159Z,75.60
2018-09-20T20:41:13.468Z,76.49
2018-09-20T20:43:41.760Z,77.58
2018-09-20T20:46:10.079Z,79.22
2018-09-20T20:48:38.379Z,79.69
2018-09-20T20:51:06.689Z,80.05
2018-09-20T20:53:34.998Z,79.63
2018-09-20T20:56:03.299Z,83.62
2018-09-20T20:58:31.675Z,81.29
2018-09-20T21:00:59.907Z,82.46
2018-09-20T21:03:28.203Z,82.93
2018-09-20T21:05:56.503Z,82.82
2018-09-20T21:08:24.950Z,84.41
2018-09-20T21:10:53.205Z,84.87
2018-09-20T21:13:21.490Z,86.09
2018-09-20T21:15:49.818Z,86.48
2018-09-20T21:18:18.121Z,84.19
2018-09-20T21:20:46.414Z,85.42
2018-09-20T21:23:14.723Z,85.07
2018-09-20T21:25:43.018Z,85.19
2018-09-20T21:28:11.306Z,86.67
2018-09-20T21:30:39.624Z,86.40
2018-09-20T21:33:07.911Z,85.01
2018-09-20T21:35:36.204Z,85.61
2018-09-20T21:38:04.528Z,83.88
2018-09-20T21:40:32.822Z,87.07
2018-09-20T21:43:01.126Z,86.26
2018-09-20T21:45:29.440Z,85.48
2018-09-20T21:47:57.726Z,85.99
2018-09-20T21:50:26.046Z,87.45
2018-09-20T21:52:54.370Z,86.72
2018-09-20T21:55:22.658Z,85.62
2018-09-20T21:57:50.954Z,87.73
2018-09-20T22:00:19.262Z,87.15
2018-09-20T22:02:47.566Z,86.67
2018-09-20T22:05:15.863Z,85.36
2018-09-20T22:07:44.175Z,86.13
2018-09-20T22:10:12.742Z,85.85
2018-09-20T22:12:41.645Z,87.45
2018-09-20T22:15:09.978Z,87.50
2018-09-20T22:17:38.261Z,87.43
2018-09-20T22:20:06.547Z,88.92
2018-09-20T22:22:34.858Z,89.15
2018-09-20T22:25:03.158Z,88.70
2018-09-20T22:27:31.481Z,88.72
2018-09-20T22:29:59.805Z,89.54
2018-09-20T22:32:28.099Z,89.17
2018-09-20T22:34:56.398Z,87.96
2018-09-20T22:37:24.898Z,88.05
2018-09-20T22:39:53.180Z,88.05
2018-09-20T22:42:21.471Z,87.67
2018-09-20T22:44:50.024Z,88.13
2018-09-20T22:47:18.567Z,88.70
2018-09-20T22:49:46.858Z,89.28
2018-09-20T22:52:15.162Z,90.85
2018-09-20T22:54:43.459Z,90.59
2018-09-20T22:57:11.751Z,91.17
2018-09-20T22:59:40.059Z,89.51
2018-09-20T23:02:08.349Z,89.02
2018-09-20T23:04:36.652Z,87.54
2018-09-20T23:07:04.955Z,90.50
2018-09-20T23:09:33.252Z,90.49
2018-09-20T23:12:01.551Z,90.78
2018-09-20T23:14:29.893Z,90.98
2018-09-20T23:16:58.155Z,91.57
2018-09-20T23:19:26.450Z,93.54
2018-09-20T23:21:54.752Z,92.53
2018-09-20T23:24:23.043Z,94.29
2018-09-20T23:26:51.357Z,95.61
2018-09-20T23:29:19.675Z,95.84
2018-09-20T23:31:47.971Z,98.39
2018-09-20T23:34:16.258Z,97.93
2018-09-20T23:36:44.559Z,99.41
2018-09-20T23:39:12.862Z,100.00
2018-09-20T23:41:41.158Z,100.00
2018-09-20T23:44:09.487Z,99.04
2018-09-20T23:46:37.766Z,100.00
2018-09-20T23:49:06.054Z,99.71
2018-09-20T23:51:34.391Z,96.58
2018-09-20T23:54:02.674Z,94.84
2018-09-20T23:56:30.974Z,94.18
2018-09-20T23:58:59.278Z,92.90
